createdAt,value
2022-10-17T00:00:05.461Z,6.20
2022-10-17T00:02:31.893Z,6.78
2022-10-17T00:04:58.343Z,7.47
2022-10-17T00:07:26.074Z,6.95
2022-10-17T00:09:52.772Z,7.22
2022-10-17T00:12:19.229Z,6.82
2022-10-17T00:14:45.728Z,7.95
2022-10-17T00:17:12.130Z,7.57
2022-10-17T00:19:38.535Z,8.00
2022-10-17T00:22:04.953Z,8.23
2022-10-17T00:24:31.699Z,8.90
2022-10-17T00:26:58.115Z,8.35
2022-10-17T00:29:24.505Z,8.52
2022-10-17T00:34:21.159Z,9.93
2022-10-17T00:36:47.658Z,9.07
2022-10-17T00:39:14.112Z,9.40
2022-10-17T00:41:40.519Z,9.50
2022-10-17T00:44:28.048Z,9.32
2022-10-17T00:46:54.959Z,9.63
2022-10-17T00:49:23.906Z,9.35
2022-10-17T00:51:53.842Z,9.57
2022-10-17T00:54:24.524Z,9.88
2022-10-17T00:56:51.377Z,9.27
2022-10-17T00:59:20.089Z,9.48
2022-10-17T01:02:02.158Z,11.35
2022-10-17T01:04:28.756Z,9.32
2022-10-17T01:06:55.192Z,9.40
2022-10-17T01:09:21.947Z,9.13
2022-10-17T01:12:14.030Z,9.27
2022-10-17T01:15:05.266Z,9.30
2022-10-17T01:17:42.559Z,10.25
2022-10-17T01:20:44.611Z,10.23
2022-10-17T01:23:38.801Z,10.07
2022-10-17T01:26:25.687Z,10.77
2022-10-17T01:29:08.074Z,9.23
2022-10-17T01:31:48.613Z,9.77
2022-10-17T01:34:33.115Z,8.77
2022-10-17T01:37:17.990Z,9.75
2022-10-17T01:40:03.192Z,9.52
2022-10-17T01:42:41.578Z,9.45
2022-10-17T01:45:21.217Z,9.82
2022-10-17T01:47:51.480Z,10.05
2022-10-17T01:50:30.914Z,10.38
2022-10-17T01:53:03.873Z,9.43
2022-10-17T01:55:36.583Z,10.38
2022-10-17T01:58:10.831Z,9.98
2022-10-17T02:00:38.228Z,10.45
2022-10-17T02:03:09.572Z,9.27
2022-10-17T02:05:39.960Z,10.20
2022-10-17T02:08:07.189Z,10.10
2022-10-17T02:10:55.948Z,9.32
2022-10-17T02:13:49.293Z,9.45
2022-10-17T02:16:44.485Z,10.20
2022-10-17T02:19:37.541Z,9.38
2022-10-17T02:22:24.999Z,9.13
2022-10-17T02:25:07.788Z,8.88
2022-10-17T02:27:56.411Z,9.63
2022-10-17T02:30:33.482Z,9.60
2022-10-17T02:33:13.149Z,8.70
2022-10-17T02:35:45.023Z,8.43
2022-10-17T02:38:12.294Z,8.65
2022-10-17T02:40:40.348Z,8.35
2022-10-17T02:43:07.550Z,7.88
2022-10-17T02:45:37.087Z,8.65
2022-10-17T02:48:19.301Z,8.65
2022-10-17T02:50:59.474Z,7.78
2022-10-17T02:53:37.813Z,8.15
2022-10-17T02:56:17.211Z,7.80
2022-10-17T02:58:47.509Z,7.97
2022-10-17T03:01:14.594Z,7.60
2022-10-17T03:03:41.107Z,7.65
2022-10-17T03:06:07.601Z,7.00
2022-10-17T03:08:34.263Z,7.80
2022-10-17T03:11:00.835Z,7.40
2022-10-17T03:13:27.295Z,7.57
2022-10-17T03:15:53.727Z,7.50
2022-10-17T03:18:20.158Z,7.20
2022-10-17T03:20:46.603Z,7.15
2022-10-17T03:23:13.151Z,7.80
2022-10-17T03:25:40.499Z,7.60
2022-10-17T03:28:06.916Z,7.97
2022-10-17T03:30:33.991Z,8.43
2022-10-17T03:33:00.919Z,7.35
2022-10-17T03:35:29.632Z,7.75
2022-10-17T03:37:56.325Z,7.78
2022-10-17T03:40:22.751Z,7.07
2022-10-17T03:42:49.211Z,7.07
2022-10-17T03:45:16.084Z,7.20
2022-10-17T03:47:42.494Z,7.68
2022-10-17T03:50:09.172Z,7.65
2022-10-17T03:52:35.618Z,7.60
2022-10-17T03:55:02.042Z,7.88
2022-10-17T03:57:28.779Z,8.18
2022-10-17T03:59:55.387Z,6.70
2022-10-17T04:02:23.141Z,7.30
2022-10-17T04:04:49.578Z,7.75
2022-10-17T04:07:16.059Z,7.55
2022-10-17T04:09:42.887Z,7.80
2022-10-17T04:12:09.292Z,9.18
2022-10-17T04:14:37.543Z,8.52
2022-10-17T04:17:04.145Z,7.97
2022-10-17T04:19:30.619Z,7.28
2022-10-17T04:21:57.860Z,7.72
2022-10-17T04:24:25.655Z,8.05
2022-10-17T04:26:52.351Z,8.00
2022-10-17T04:29:19.062Z,7.10
2022-10-17T04:31:45.481Z,7.90
2022-10-17T04:34:14.140Z,8.55
2022-10-17T04:36:40.764Z,7.88
2022-10-17T04:39:07.240Z,6.93
2022-10-17T04:41:33.964Z,8.48
2022-10-17T04:44:00.563Z,7.80
2022-10-17T04:46:27.010Z,8.60
2022-10-17T04:48:54.030Z,7.90
2022-10-17T04:51:23.090Z,8.75
2022-10-17T04:53:52.350Z,9.38
2022-10-17T04:56:20.969Z,9.68
2022-10-17T04:58:48.234Z,8.68
2022-10-17T05:01:17.559Z,8.73
2022-10-17T05:03:44.299Z,9.68
2022-10-17T05:06:13.304Z,9.60
2022-10-17T05:08:39.965Z,9.75
2022-10-17T05:11:16.044Z,8.82
2022-10-17T05:13:42.508Z,8.98
2022-10-17T05:16:09.101Z,9.43
2022-10-17T05:18:35.505Z,9.73
2022-10-17T05:21:03.928Z,9.55
2022-10-17T05:23:30.797Z,10.13
2022-10-17T05:25:57.229Z,9.52
2022-10-17T05:28:24.141Z,9.93
2022-10-17T05:30:50.755Z,9.77
2022-10-17T05:33:17.188Z,10.30
2022-10-17T05:35:43.699Z,11.20
2022-10-17T05:38:10.147Z,10.38
2022-10-17T05:40:38.441Z,10.77
2022-10-17T05:43:05.224Z,9.75
2022-10-17T05:45:31.756Z,10.25
2022-10-17T05:47:58.158Z,9.80
2022-10-17T05:50:25.177Z,10.40
2022-10-17T05:52:55.274Z,10.60
2022-10-17T05:55:22.157Z,9.73
2022-10-17T05:57:49.671Z,11.30
2022-10-17T06:00:16.299Z,10.80
2022-10-17T06:02:46.061Z,10.20
2022-10-17T06:05:13.582Z,9.35
2022-10-17T06:07:40.479Z,9.98
2022-10-17T06:10:07.249Z,9.70
2022-10-17T06:12:33.895Z,8.88
2022-10-17T06:15:00.734Z,8.55
2022-10-17T06:17:28.480Z,9.73
2022-10-17T06:19:57.189Z,8.18
2022-10-17T06:22:23.638Z,8.82
2022-10-17T06:24:50.036Z,8.40
2022-10-17T06:27:16.431Z,8.05
2022-10-17T06:29:42.900Z,7.63
2022-10-17T06:32:12.625Z,7.35
2022-10-17T06:34:41.486Z,7.35
2022-10-17T06:37:07.952Z,7.25
2022-10-17T06:39:35.817Z,6.25
2022-10-17T06:42:03.469Z,6.18
2022-10-17T06:44:31.751Z,6.15
2022-10-17T06:46:59.184Z,6.00
2022-10-17T06:49:25.726Z,5.82
2022-10-17T06:51:52.148Z,5.82
2022-10-17T06:54:18.569Z,5.20
2022-10-17T06:56:45.069Z,5.10
2022-10-17T06:59:11.515Z,4.60
2022-10-17T07:01:39.023Z,4.88
2022-10-17T07:04:07.240Z,4.00
2022-10-17T07:06:34.152Z,4.65
2022-10-17T07:09:02.674Z,4.00
2022-10-17T07:11:29.299Z,3.63
2022-10-17T07:13:55.697Z,3.55
2022-10-17T07:16:22.183Z,3.47
2022-10-17T07:18:49.986Z,3.50
2022-10-17T07:21:16.611Z,3.53
2022-10-17T07:23:43.062Z,3.65
2022-10-17T07:26:12.382Z,5.25
2022-10-17T07:28:40.972Z,3.60
2022-10-17T07:31:09.693Z,3.20
2022-10-17T07:33:36.455Z,3.25
2022-10-17T07:36:04.782Z,3.20
2022-10-17T07:38:31.682Z,2.42
2022-10-17T07:40:59.960Z,3.38
2022-10-17T07:43:27.060Z,3.00
2022-10-17T07:45:54.242Z,3.13
2022-10-17T07:48:21.607Z,3.03
2022-10-17T07:50:48.168Z,3.10
2022-10-17T07:53:14.627Z,3.05
2022-10-17T07:55:41.961Z,2.90
2022-10-17T07:58:09.102Z,2.95
2022-10-17T08:00:39.368Z,2.90
2022-10-17T08:03:06.617Z,2.83
2022-10-17T08:05:34.588Z,3.03
2022-10-17T08:08:01.024Z,2.67
2022-10-17T08:10:29.240Z,2.80
2022-10-17T08:12:57.654Z,2.80
2022-10-17T08:15:30.929Z,2.60
2022-10-17T08:17:59.025Z,2.10
2022-10-17T08:20:26.311Z,2.70
2022-10-17T08:22:53.882Z,2.70
2022-10-17T08:25:20.988Z,3.05
2022-10-17T08:27:47.428Z,2.38
2022-10-17T08:30:13.927Z,2.80
2022-10-17T08:32:40.364Z,2.67
2022-10-17T08:35:07.152Z,2.50
2022-10-17T08:37:34.041Z,2.63
2022-10-17T08:40:00.647Z,2.65
2022-10-17T08:42:53.180Z,2.85
2022-10-17T08:45:38.351Z,2.85
2022-10-17T08:48:11.032Z,2.90
2022-10-17T08:50:43.603Z,3.03
2022-10-17T08:53:26.974Z,2.90
2022-10-17T08:58:26.196Z,2.70
2022-10-17T09:01:33.791Z,2.60
2022-10-17T09:04:33.785Z,2.92
2022-10-17T09:07:12.394Z,2.70
2022-10-17T09:10:22.885Z,2.72
2022-10-17T09:13:32.699Z,2.53
2022-10-17T09:16:31.005Z,2.63
2022-10-17T09:19:08.213Z,2.80
2022-10-17T09:21:59.434Z,2.80
2022-10-17T09:24:43.816Z,2.90
2022-10-17T09:27:25.363Z,4.00
2022-10-17T09:30:17.202Z,2.88
2022-10-17T09:32:59.464Z,2.72
2022-10-17T09:35:28.213Z,2.67
2022-10-17T09:37:54.936Z,2.83
2022-10-17T09:40:26.696Z,2.70
2022-10-17T09:42:53.792Z,2.70
2022-10-17T09:45:27.064Z,2.45
2022-10-17T09:48:19.096Z,2.55
2022-10-17T09:50:53.868Z,2.60
2022-10-17T09:53:37.703Z,2.70
2022-10-17T09:56:09.901Z,2.25
2022-10-17T09:58:46.882Z,2.85
2022-10-17T10:04:14.102Z,3.00
2022-10-17T10:06:42.073Z,2.95
2022-10-17T10:09:23.877Z,2.97
2022-10-17T10:11:53.004Z,3.97
2022-10-17T10:14:23.612Z,3.05
2022-10-17T10:16:53.713Z,2.80
2022-10-17T10:19:34.517Z,3.03
2022-10-17T10:22:03.810Z,2.78
2022-10-17T10:24:31.373Z,2.67
2022-10-17T10:27:01.981Z,2.35
2022-10-17T10:29:38.147Z,2.95
2022-10-17T10:32:19.680Z,2.47
2022-10-17T10:34:56.523Z,2.67
2022-10-17T10:39:59.822Z,3.70
2022-10-17T10:42:33.957Z,2.90
2022-10-17T10:48:24.170Z,2.70
2022-10-17T10:50:56.914Z,2.40
2022-10-17T10:53:35.181Z,2.70
2022-10-17T10:56:09.806Z,2.40
2022-10-17T10:58:56.921Z,2.60
2022-10-17T11:01:46.683Z,3.38
2022-10-17T11:04:22.461Z,2.95
2022-10-17T11:06:52.607Z,2.50
2022-10-17T11:09:44.763Z,2.47
2022-10-17T11:12:20.540Z,2.15
2022-10-17T11:15:03.269Z,2.65
2022-10-17T11:17:45.938Z,2.80
2022-10-17T11:20:22.334Z,2.70
2022-10-17T11:22:54.265Z,2.30
2022-10-17T11:25:40.774Z,2.50
2022-10-17T11:28:15.824Z,2.58
2022-10-17T11:30:47.898Z,2.20
2022-10-17T11:33:24.311Z,2.60
2022-10-17T11:35:53.448Z,2.63
2022-10-17T11:38:45.164Z,2.33
2022-10-17T11:41:17.828Z,2.42
2022-10-17T11:43:51.714Z,2.30
2022-10-17T11:46:28.556Z,2.50
2022-10-17T11:49:11.324Z,2.85
2022-10-17T11:52:05.363Z,3.35
2022-10-17T11:54:35.038Z,2.40
2022-10-17T11:57:42.035Z,2.25
2022-10-17T12:00:17.481Z,2.25
2022-10-17T12:02:48.213Z,2.40
2022-10-17T12:06:01.236Z,2.60
2022-10-17T12:08:40.621Z,2.15
2022-10-17T12:11:18.732Z,2.50
2022-10-17T12:13:54.494Z,2.28
2022-10-17T12:16:21.016Z,2.55
2022-10-17T12:18:50.367Z,2.72
2022-10-17T12:21:16.897Z,2.45
2022-10-17T12:23:52.842Z,2.15
2022-10-17T12:26:27.531Z,2.40
2022-10-17T12:28:54.680Z,2.13
2022-10-17T12:31:32.547Z,2.50
2022-10-17T12:34:02.186Z,2.33
2022-10-17T12:36:28.634Z,3.05
2022-10-17T12:39:04.031Z,3.10
2022-10-17T12:41:39.653Z,2.42
2022-10-17T12:44:13.851Z,2.20
2022-10-17T12:47:18.838Z,2.30
2022-10-17T12:49:55.740Z,2.30
2022-10-17T12:52:34.919Z,2.20
2022-10-17T12:55:12.986Z,2.75
2022-10-17T12:57:50.298Z,2.45
2022-10-17T13:00:25.392Z,2.65
2022-10-17T13:02:54.818Z,2.53
2022-10-17T13:05:34.186Z,2.20
2022-10-17T13:08:04.864Z,2.40
2022-10-17T13:10:40.662Z,2.40
2022-10-17T13:13:19.011Z,2.20
2022-10-17T13:15:50.160Z,2.50
2022-10-17T13:18:28.778Z,2.38
2022-10-17T13:21:02.210Z,2.28
2022-10-17T13:23:34.726Z,2.15
2022-10-17T13:26:22.379Z,2.10
2022-10-17T13:29:05.093Z,2.40
2022-10-17T13:31:37.410Z,2.50
2022-10-17T13:34:07.016Z,2.10
2022-10-17T13:36:35.290Z,2.30
2022-10-17T13:39:12.086Z,2.35
2022-10-17T13:41:40.644Z,2.30
2022-10-17T13:44:14.895Z,2.05
2022-10-17T13:46:41.794Z,2.20
2022-10-17T13:49:34.135Z,2.58
2022-10-17T13:52:03.788Z,2.22
2022-10-17T13:54:32.835Z,2.40
2022-10-17T13:57:00.249Z,2.42
2022-10-17T13:59:38.634Z,2.13
2022-10-17T14:02:12.782Z,2.38
2022-10-17T14:05:04.036Z,2.10
2022-10-17T14:07:46.273Z,2.40
2022-10-17T14:10:22.579Z,2.22
2022-10-17T14:12:51.233Z,2.30
2022-10-17T14:15:18.657Z,2.40
2022-10-17T14:17:45.909Z,2.42
2022-10-17T14:23:40.313Z,2.45
2022-10-17T14:26:11.992Z,2.30
2022-10-17T14:28:39.865Z,2.42
2022-10-17T14:31:14.084Z,2.38
2022-10-17T14:33:49.676Z,2.22
2022-10-17T14:38:50.012Z,2.47
2022-10-17T14:41:47.560Z,2.42
2022-10-17T14:44:24.604Z,2.47
2022-10-17T14:49:27.378Z,2.13
2022-10-17T14:52:22.396Z,2.20
2022-10-17T14:54:49.724Z,2.03
2022-10-17T14:57:22.026Z,2.38
2022-10-17T14:59:55.913Z,2.10
2022-10-17T15:02:24.702Z,2.35
2022-10-17T15:04:51.399Z,2.33
2022-10-17T15:07:18.036Z,2.60
2022-10-17T15:09:46.978Z,1.98
2022-10-17T15:12:16.608Z,2.20
2022-10-17T15:14:44.157Z,2.45
2022-10-17T15:17:14.437Z,2.20
2022-10-17T15:19:44.439Z,2.38
2022-10-17T15:22:10.960Z,2.40
2022-10-17T15:24:37.376Z,2.15
2022-10-17T15:27:12.911Z,2.28
2022-10-17T15:29:39.314Z,2.30
2022-10-17T15:32:06.481Z,2.22
2022-10-17T15:34:33.103Z,2.20
2022-10-17T15:36:59.532Z,2.17
2022-10-17T15:39:25.983Z,2.40
2022-10-17T15:41:52.418Z,2.58
2022-10-17T15:44:18.822Z,2.75
2022-10-17T15:46:45.289Z,2.20
2022-10-17T15:49:14.485Z,2.70
2022-10-17T15:51:40.891Z,2.47
2022-10-17T15:54:07.695Z,2.38
2022-10-17T15:56:40.904Z,2.53
2022-10-17T15:59:17.887Z,2.58
2022-10-17T16:04:15.608Z,2.88
2022-10-17T16:06:42.638Z,2.28
2022-10-17T16:09:09.380Z,2.60
2022-10-17T16:11:38.388Z,2.70
2022-10-17T16:14:09.862Z,2.40
2022-10-17T16:16:36.321Z,2.50
2022-10-17T16:19:03.391Z,2.88
2022-10-17T16:21:32.890Z,2.42
2022-10-17T16:23:59.333Z,2.60
2022-10-17T16:26:26.487Z,2.38
2022-10-17T16:28:53.094Z,2.85
2022-10-17T16:31:29.343Z,2.97
2022-10-17T16:33:57.593Z,3.03
2022-10-17T16:36:24.650Z,3.75
2022-10-17T16:38:52.426Z,2.50
2022-10-17T16:41:24.577Z,3.15
2022-10-17T16:43:52.715Z,3.35
2022-10-17T16:46:20.350Z,2.92
2022-10-17T16:48:46.842Z,3.75
2022-10-17T16:51:14.972Z,2.65
2022-10-17T16:53:44.664Z,3.00
2022-10-17T16:56:13.458Z,2.75
2022-10-17T16:58:41.192Z,3.00
2022-10-17T17:01:13.242Z,3.38
2022-10-17T17:03:42.932Z,2.90
2022-10-17T17:06:13.273Z,3.08
2022-10-17T17:08:39.736Z,3.47
2022-10-17T17:11:08.017Z,3.53
2022-10-17T17:13:35.101Z,3.58
2022-10-17T17:16:13.620Z,3.70
2022-10-17T17:18:40.946Z,3.70
2022-10-17T17:21:09.077Z,3.65
2022-10-17T17:23:37.734Z,3.30
2022-10-17T17:26:14.204Z,3.42
2022-10-17T17:28:41.551Z,3.67
2022-10-17T17:31:10.392Z,3.67
2022-10-17T17:33:38.518Z,3.60
2022-10-17T17:36:05.223Z,3.50
2022-10-17T17:38:35.065Z,3.33
2022-10-17T17:41:01.708Z,3.33
2022-10-17T17:43:28.517Z,3.50
2022-10-17T17:45:54.979Z,3.15
2022-10-17T17:48:21.937Z,3.35
2022-10-17T17:50:49.887Z,3.35
2022-10-17T17:53:16.902Z,3.30
2022-10-17T17:55:43.395Z,2.95
2022-10-17T17:58:10.014Z,3.40
2022-10-17T18:00:36.435Z,3.20
2022-10-17T18:03:03.307Z,3.67
2022-10-17T18:05:30.378Z,3.35
2022-10-17T18:07:56.915Z,3.45
2022-10-17T18:10:23.448Z,3.28
2022-10-17T18:12:49.915Z,3.30
2022-10-17T18:15:16.722Z,3.15
2022-10-17T18:17:43.264Z,3.53
2022-10-17T18:20:10.190Z,4.03
2022-10-17T18:22:36.655Z,4.07
2022-10-17T18:25:04.263Z,3.47
2022-10-17T18:27:30.667Z,3.42
2022-10-17T18:29:57.119Z,3.42
2022-10-17T18:32:23.540Z,3.80
2022-10-17T18:34:49.945Z,3.90
2022-10-17T18:37:16.405Z,4.22
2022-10-17T18:39:42.974Z,3.70
2022-10-17T18:42:09.659Z,4.07
2022-10-17T18:44:37.273Z,4.00
2022-10-17T18:47:04.649Z,4.38
2022-10-17T18:49:31.305Z,4.15
2022-10-17T18:51:57.817Z,4.10
2022-10-17T18:54:24.658Z,6.03
2022-10-17T18:56:52.917Z,4.75
2022-10-17T18:59:20.143Z,4.70
2022-10-17T19:01:48.431Z,3.92
2022-10-17T19:04:15.131Z,4.57
2022-10-17T19:06:42.458Z,4.30
2022-10-17T19:09:11.765Z,4.30
2022-10-17T19:11:39.012Z,4.20
2022-10-17T19:14:15.852Z,4.38
2022-10-17T19:16:45.354Z,4.10
2022-10-17T19:19:19.320Z,4.03
2022-10-17T19:21:46.309Z,4.40
2022-10-17T19:24:15.619Z,4.25
2022-10-17T19:26:43.504Z,3.40
2022-10-17T19:29:13.163Z,4.30
2022-10-17T19:31:39.925Z,4.15
2022-10-17T19:34:06.497Z,4.03
2022-10-17T19:36:34.778Z,4.20
2022-10-17T19:39:03.917Z,4.18
2022-10-17T19:41:30.416Z,4.45
2022-10-17T19:43:57.509Z,3.83
2022-10-17T19:46:26.175Z,4.45
2022-10-17T19:48:52.934Z,3.92
2022-10-17T19:51:22.008Z,4.22
2022-10-17T19:53:48.684Z,3.85
2022-10-17T19:56:18.816Z,4.43
2022-10-17T19:58:46.586Z,4.00
2022-10-17T20:01:16.334Z,4.43
2022-10-17T20:03:42.764Z,4.28
2022-10-17T20:06:09.862Z,4.45
2022-10-17T20:08:37.833Z,4.22
2022-10-17T20:11:06.903Z,4.40
2022-10-17T20:13:35.817Z,3.97
2022-10-17T20:16:03.090Z,4.32
2022-10-17T20:18:29.626Z,3.97
2022-10-17T20:20:56.359Z,4.07
2022-10-17T20:23:22.867Z,4.75
2022-10-17T20:26:06.814Z,4.68
2022-10-17T20:28:45.911Z,4.20
2022-10-17T20:31:13.265Z,6.35
2022-10-17T20:33:41.609Z,4.97
2022-10-17T20:36:10.206Z,4.65
2022-10-17T20:38:36.759Z,5.20
2022-10-17T20:41:05.728Z,5.28
2022-10-17T20:43:32.548Z,5.07
2022-10-17T20:46:08.539Z,4.30
2022-10-17T20:48:42.314Z,4.90
2022-10-17T20:51:11.019Z,4.78
2022-10-17T20:53:37.930Z,4.85
2022-10-17T20:56:07.476Z,5.13
2022-10-17T20:58:34.514Z,4.93
2022-10-17T21:01:09.215Z,4.88
2022-10-17T21:03:42.375Z,5.18
2022-10-17T21:06:12.382Z,5.57
2022-10-17T21:08:39.107Z,5.03
2022-10-17T21:11:13.896Z,5.15
2022-10-17T21:13:41.071Z,5.35
2022-10-17T21:16:10.396Z,5.53
2022-10-17T21:18:37.453Z,4.93
2022-10-17T21:21:08.640Z,5.05
2022-10-17T21:26:01.760Z,4.90
2022-10-17T21:28:28.214Z,4.75
2022-10-17T21:30:54.796Z,4.65
2022-10-17T21:33:21.322Z,5.18
2022-10-17T21:35:47.752Z,5.03
2022-10-17T21:38:14.161Z,5.05
2022-10-17T21:40:40.648Z,5.00
2022-10-17T21:43:07.058Z,4.70
2022-10-17T21:45:35.791Z,4.78
2022-10-17T21:48:12.704Z,4.78
2022-10-17T21:50:40.890Z,4.90
2022-10-17T21:53:08.396Z,4.50
2022-10-17T21:55:38.146Z,5.07
2022-10-17T21:58:05.008Z,5.00
2022-10-17T22:00:31.784Z,5.35
2022-10-17T22:02:58.231Z,4.78
2022-10-17T22:05:24.807Z,5.50
2022-10-17T22:07:51.208Z,4.38
2022-10-17T22:10:17.612Z,4.72
2022-10-17T22:12:44.077Z,4.88
2022-10-17T22:15:10.558Z,4.82
2022-10-17T22:17:37.188Z,5.05
2022-10-17T22:20:03.759Z,5.13
2022-10-17T22:22:30.424Z,5.00
2022-10-17T22:24:56.879Z,4.97
2022-10-17T22:27:23.290Z,4.75
2022-10-17T22:29:49.705Z,5.25
2022-10-17T22:32:20.079Z,4.93
2022-10-17T22:34:48.913Z,4.95
2022-10-17T22:37:15.338Z,4.80
2022-10-17T22:39:41.826Z,5.60
2022-10-17T22:42:08.251Z,5.10
2022-10-17T22:44:34.740Z,5.22
2022-10-17T22:47:01.189Z,5.20
2022-10-17T22:49:27.868Z,4.65
2022-10-17T22:51:55.295Z,5.40
2022-10-17T22:54:21.695Z,5.13
2022-10-17T22:56:48.133Z,4.63
2022-10-17T22:59:15.285Z,5.20
2022-10-17T23:01:41.783Z,5.25
2022-10-17T23:04:08.280Z,4.53
2022-10-17T23:06:34.886Z,5.35
2022-10-17T23:09:01.386Z,5.40
2022-10-17T23:11:27.825Z,5.07
2022-10-17T23:13:54.677Z,5.60
2022-10-17T23:16:21.144Z,5.55
2022-10-17T23:18:47.622Z,5.32
2022-10-17T23:21:14.303Z,4.85
2022-10-17T23:23:40.746Z,5.60
2022-10-17T23:26:09.846Z,5.65
2022-10-17T23:28:36.355Z,5.47
2022-10-17T23:31:12.203Z,5.25
2022-10-17T23:33:41.161Z,5.63
2022-10-17T23:36:12.788Z,5.75
2022-10-17T23:38:40.456Z,5.68
2022-10-17T23:41:07.070Z,5.05
2022-10-17T23:43:34.458Z,5.75
2022-10-17T23:46:02.441Z,5.30
2022-10-17T23:48:29.273Z,5.43
2022-10-17T23:50:56.020Z,5.00
2022-10-17T23:53:23.427Z,5.72
2022-10-17T23:55:49.836Z,5.38
2022-10-17T23:58:16.467Z,5.00
